sensor_id;sensor_type;location;lat;lon;timestamp;P1;durP1;ratioP1;P2;durP2;ratioP2
55455;SDS011;63021;52.836;6.376;2022-11-21T00:01:31;31.05;;;17.35;;
55455;SDS011;63021;52.836;6.376;2022-11-21T00:03:56;31.30;;;19.00;;
55455;SDS011;63021;52.836;6.376;2022-11-21T00:06:21;29.35;;;19.88;;
55455;SDS011;63021;52.836;6.376;2022-11-21T00:08:47;33.85;;;20.02;;
55455;SDS011;63021;52.836;6.376;2022-11-21T00:11:13;31.42;;;18.48;;
55455;SDS011;63021;52.836;6.376;2022-11-21T00:13:38;26.77;;;16.20;;
55455;SDS011;63021;52.836;6.376;2022-11-21T00:16:08;29.52;;;19.02;;
55455;SDS011;63021;52.836;6.376;2022-11-21T00:18:35;28.88;;;17.63;;
55455;SDS011;63021;52.836;6.376;2022-11-21T00:21:03;31.10;;;18.38;;
55455;SDS011;63021;52.836;6.376;2022-11-21T00:23:29;25.08;;;16.88;;
55455;SDS011;63021;52.836;6.376;2022-11-21T00:25:55;31.20;;;18.50;;
55455;SDS011;63021;52.836;6.376;2022-11-21T00:28:20;29.30;;;17.92;;
55455;SDS011;63021;52.836;6.376;2022-11-21T00:30:46;30.42;;;17.75;;
55455;SDS011;63021;52.836;6.376;2022-11-21T00:33:11;31.55;;;19.05;;
55455;SDS011;63021;52.836;6.376;2022-11-21T00:35:36;30.50;;;18.05;;
55455;SDS011;63021;52.836;6.376;2022-11-21T00:38:02;33.38;;;18.92;;
55455;SDS011;63021;52.836;6.376;2022-11-21T00:40:27;26.95;;;17.73;;
55455;SDS011;63021;52.836;6.376;2022-11-21T00:42:52;28.00;;;16.73;;
55455;SDS011;63021;52.836;6.376;2022-11-21T00:45:18;23.33;;;16.92;;
55455;SDS011;63021;52.836;6.376;2022-11-21T00:47:43;29.73;;;18.60;;
55455;SDS011;63021;52.836;6.376;2022-11-21T00:50:09;28.67;;;17.67;;
55455;SDS011;63021;52.836;6.376;2022-11-21T00:52:34;30.50;;;17.20;;
55455;SDS011;63021;52.836;6.376;2022-11-21T00:54:59;26.70;;;16.67;;
55455;SDS011;63021;52.836;6.376;2022-11-21T00:57:25;28.27;;;17.63;;
55455;SDS011;63021;52.836;6.376;2022-11-21T00:59:50;25.35;;;17.08;;
55455;SDS011;63021;52.836;6.376;2022-11-21T01:02:16;28.90;;;17.67;;
55455;SDS011;63021;52.836;6.376;2022-11-21T01:04:41;30.75;;;18.42;;
55455;SDS011;63021;52.836;6.376;2022-11-21T01:07:07;27.80;;;17.48;;
55455;SDS011;63021;52.836;6.376;2022-11-21T01:09:32;30.27;;;19.63;;
55455;SDS011;63021;52.836;6.376;2022-11-21T01:11:57;26.48;;;18.38;;
55455;SDS011;63021;52.836;6.376;2022-11-21T01:14:23;25.23;;;16.92;;
55455;SDS011;63021;52.836;6.376;2022-11-21T01:16:48;28.60;;;17.80;;
55455;SDS011;63021;52.836;6.376;2022-11-21T01:19:14;28.85;;;19.27;;
55455;SDS011;63021;52.836;6.376;2022-11-21T01:21:39;25.92;;;16.25;;
55455;SDS011;63021;52.836;6.376;2022-11-21T01:24:05;25.17;;;17.02;;
55455;SDS011;63021;52.836;6.376;2022-11-21T01:26:31;29.73;;;17.00;;
55455;SDS011;63021;52.836;6.376;2022-11-21T01:29:02;27.85;;;17.27;;
55455;SDS011;63021;52.836;6.376;2022-11-21T01:31:28;26.48;;;17.95;;
55455;SDS011;63021;52.836;6.376;2022-11-21T01:33:55;29.13;;;18.88;;
55455;SDS011;63021;52.836;6.376;2022-11-21T01:36:29;32.03;;;17.80;;
55455;SDS011;63021;52.836;6.376;2022-11-21T01:38:57;35.17;;;19.13;;
55455;SDS011;63021;52.836;6.376;2022-11-21T01:41:28;29.25;;;18.65;;
55455;SDS011;63021;52.836;6.376;2022-11-21T01:43:57;30.00;;;17.80;;
55455;SDS011;63021;52.836;6.376;2022-11-21T01:46:43;32.30;;;17.98;;
55455;SDS011;63021;52.836;6.376;2022-11-21T01:49:10;26.98;;;18.27;;
55455;SDS011;63021;52.836;6.376;2022-11-21T01:51:54;30.17;;;19.02;;
55455;SDS011;63021;52.836;6.376;2022-11-21T01:57:14;29.95;;;18.83;;
55455;SDS011;63021;52.836;6.376;2022-11-21T02:02:25;29.75;;;18.23;;
55455;SDS011;63021;52.836;6.376;2022-11-21T02:04:54;29.27;;;18.45;;
55455;SDS011;63021;52.836;6.376;2022-11-21T02:07:21;37.35;;;20.10;;
55455;SDS011;63021;52.836;6.376;2022-11-21T02:09:50;26.35;;;17.80;;
55455;SDS011;63021;52.836;6.376;2022-11-21T02:12:28;30.13;;;17.48;;
55455;SDS011;63021;52.836;6.376;2022-11-21T02:14:57;33.28;;;20.20;;
55455;SDS011;63021;52.836;6.376;2022-11-21T02:17:24;31.58;;;19.48;;
55455;SDS011;63021;52.836;6.376;2022-11-21T02:19:54;29.65;;;17.75;;
55455;SDS011;63021;52.836;6.376;2022-11-21T02:25:06;30.15;;;18.05;;
55455;SDS011;63021;52.836;6.376;2022-11-21T02:27:35;29.10;;;18.15;;
55455;SDS011;63021;52.836;6.376;2022-11-21T02:30:02;29.27;;;18.13;;
55455;SDS011;63021;52.836;6.376;2022-11-21T02:32:33;30.27;;;17.85;;
55455;SDS011;63021;52.836;6.376;2022-11-21T02:35:07;26.67;;;16.83;;
55455;SDS011;63021;52.836;6.376;2022-11-21T02:37:34;32.17;;;18.35;;
55455;SDS011;63021;52.836;6.376;2022-11-21T02:40:02;28.85;;;16.42;;
55455;SDS011;63021;52.836;6.376;2022-11-21T02:48:18;30.95;;;18.13;;
55455;SDS011;63021;52.836;6.376;2022-11-21T02:50:44;30.15;;;18.55;;
55455;SDS011;63021;52.836;6.376;2022-11-21T02:53:14;30.30;;;17.70;;
55455;SDS011;63021;52.836;6.376;2022-11-21T02:55:41;31.08;;;19.58;;
55455;SDS011;63021;52.836;6.376;2022-11-21T02:58:07;29.88;;;19.20;;
55455;SDS011;63021;52.836;6.376;2022-11-21T03:00:34;27.83;;;19.13;;
55455;SDS011;63021;52.836;6.376;2022-11-21T03:03:00;32.83;;;19.40;;
55455;SDS011;63021;52.836;6.376;2022-11-21T03:05:26;33.30;;;19.50;;
55455;SDS011;63021;52.836;6.376;2022-11-21T03:07:52;30.10;;;18.90;;
55455;SDS011;63021;52.836;6.376;2022-11-21T03:10:18;30.30;;;19.73;;
55455;SDS011;63021;52.836;6.376;2022-11-21T03:12:43;25.88;;;17.13;;
55455;SDS011;63021;52.836;6.376;2022-11-21T03:15:12;28.08;;;17.95;;
55455;SDS011;63021;52.836;6.376;2022-11-21T03:17:39;29.88;;;17.10;;
55455;SDS011;63021;52.836;6.376;2022-11-21T03:20:05;29.90;;;17.90;;
55455;SDS011;63021;52.836;6.376;2022-11-21T03:22:32;28.25;;;17.60;;
55455;SDS011;63021;52.836;6.376;2022-11-21T03:24:57;32.05;;;18.92;;
55455;SDS011;63021;52.836;6.376;2022-11-21T03:27:23;27.33;;;17.65;;
55455;SDS011;63021;52.836;6.376;2022-11-21T03:29:48;30.77;;;16.75;;
55455;SDS011;63021;52.836;6.376;2022-11-21T03:32:14;28.67;;;18.40;;
55455;SDS011;63021;52.836;6.376;2022-11-21T03:34:39;29.40;;;17.35;;
55455;SDS011;63021;52.836;6.376;2022-11-21T03:37:05;31.27;;;18.73;;
55455;SDS011;63021;52.836;6.376;2022-11-21T03:39:30;30.85;;;17.85;;
55455;SDS011;63021;52.836;6.376;2022-11-21T03:41:56;31.30;;;18.90;;
55455;SDS011;63021;52.836;6.376;2022-11-21T03:44:21;26.67;;;18.17;;
55455;SDS011;63021;52.836;6.376;2022-11-21T03:46:47;28.50;;;17.45;;
55455;SDS011;63021;52.836;6.376;2022-11-21T03:49:12;28.50;;;16.88;;
55455;SDS011;63021;52.836;6.376;2022-11-21T03:51:40;30.35;;;18.35;;
55455;SDS011;63021;52.836;6.376;2022-11-21T03:54:06;26.83;;;16.67;;
55455;SDS011;63021;52.836;6.376;2022-11-21T03:56:32;30.75;;;18.67;;
55455;SDS011;63021;52.836;6.376;2022-11-21T03:58:58;29.58;;;17.52;;
55455;SDS011;63021;52.836;6.376;2022-11-21T04:01:24;26.25;;;17.15;;
55455;SDS011;63021;52.836;6.376;2022-11-21T04:03:49;30.55;;;16.63;;
55455;SDS011;63021;52.836;6.376;2022-11-21T04:06:16;30.33;;;18.98;;
55455;SDS011;63021;52.836;6.376;2022-11-21T04:08:43;27.55;;;17.38;;
55455;SDS011;63021;52.836;6.376;2022-11-21T04:11:08;28.58;;;17.73;;
55455;SDS011;63021;52.836;6.376;2022-11-21T04:13:34;29.92;;;17.17;;
55455;SDS011;63021;52.836;6.376;2022-11-21T04:15:59;33.08;;;17.75;;
55455;SDS011;63021;52.836;6.376;2022-11-21T04:18:25;29.40;;;18.92;;
55455;SDS011;63021;52.836;6.376;2022-11-21T04:21:00;28.23;;;18.55;;
55455;SDS011;63021;52.836;6.376;2022-11-21T04:23:28;26.55;;;17.52;;
55455;SDS011;63021;52.836;6.376;2022-11-21T04:25:53;28.50;;;18.45;;
55455;SDS011;63021;52.836;6.376;2022-11-21T04:28:19;29.25;;;17.90;;
55455;SDS011;63021;52.836;6.376;2022-11-21T04:30:45;34.00;;;20.05;;
55455;SDS011;63021;52.836;6.376;2022-11-21T04:33:10;33.97;;;18.42;;
55455;SDS011;63021;52.836;6.376;2022-11-21T04:35:37;30.55;;;17.52;;
55455;SDS011;63021;52.836;6.376;2022-11-21T04:38:02;32.15;;;17.77;;
55455;SDS011;63021;52.836;6.376;2022-11-21T04:40:28;30.50;;;17.02;;
55455;SDS011;63021;52.836;6.376;2022-11-21T04:42:53;26.23;;;16.73;;
55455;SDS011;63021;52.836;6.376;2022-11-21T04:45:18;27.98;;;17.45;;
55455;SDS011;63021;52.836;6.376;2022-11-21T04:47:44;28.30;;;15.73;;
55455;SDS011;63021;52.836;6.376;2022-11-21T04:50:11;26.98;;;16.95;;
55455;SDS011;63021;52.836;6.376;2022-11-21T04:52:39;27.83;;;17.35;;
55455;SDS011;63021;52.836;6.376;2022-11-21T04:55:05;28.58;;;16.55;;
55455;SDS011;63021;52.836;6.376;2022-11-21T04:57:32;27.85;;;16.83;;
55455;SDS011;63021;52.836;6.376;2022-11-21T04:59:58;31.65;;;18.23;;
55455;SDS011;63021;52.836;6.376;2022-11-21T05:02:23;26.15;;;16.33;;
55455;SDS011;63021;52.836;6.376;2022-11-21T05:04:49;28.20;;;17.15;;
55455;SDS011;63021;52.836;6.376;2022-11-21T05:07:14;31.58;;;17.92;;
55455;SDS011;63021;52.836;6.376;2022-11-21T05:09:40;32.92;;;17.38;;
55455;SDS011;63021;52.836;6.376;2022-11-21T05:12:07;29.98;;;16.75;;
55455;SDS011;63021;52.836;6.376;2022-11-21T05:14:52;30.05;;;18.35;;
55455;SDS011;63021;52.836;6.376;2022-11-21T05:17:17;32.83;;;18.35;;
55455;SDS011;63021;52.836;6.376;2022-11-21T05:19:43;34.05;;;18.73;;
55455;SDS011;63021;52.836;6.376;2022-11-21T05:22:08;26.90;;;18.10;;
55455;SDS011;63021;52.836;6.376;2022-11-21T05:24:33;34.08;;;18.63;;
55455;SDS011;63021;52.836;6.376;2022-11-21T05:26:59;33.40;;;19.65;;
55455;SDS011;63021;52.836;6.376;2022-11-21T05:29:24;28.65;;;18.70;;
55455;SDS011;63021;52.836;6.376;2022-11-21T05:31:49;34.30;;;18.25;;
55455;SDS011;63021;52.836;6.376;2022-11-21T05:34:15;30.77;;;18.30;;
55455;SDS011;63021;52.836;6.376;2022-11-21T05:36:40;29.15;;;18.52;;
55455;SDS011;63021;52.836;6.376;2022-11-21T05:39:06;28.42;;;18.65;;
55455;SDS011;63021;52.836;6.376;2022-11-21T05:41:31;33.63;;;19.02;;
55455;SDS011;63021;52.836;6.376;2022-11-21T05:43:56;34.25;;;19.23;;
55455;SDS011;63021;52.836;6.376;2022-11-21T05:46:22;31.20;;;20.20;;
55455;SDS011;63021;52.836;6.376;2022-11-21T05:48:49;31.33;;;19.60;;
55455;SDS011;63021;52.836;6.376;2022-11-21T05:51:16;32.70;;;20.30;;
55455;SDS011;63021;52.836;6.376;2022-11-21T05:53:42;30.40;;;19.45;;
55455;SDS011;63021;52.836;6.376;2022-11-21T05:56:12;34.50;;;19.23;;
55455;SDS011;63021;52.836;6.376;2022-11-21T05:58:39;32.90;;;21.02;;
55455;SDS011;63021;52.836;6.376;2022-11-21T06:01:06;34.70;;;21.13;;
55455;SDS011;63021;52.836;6.376;2022-11-21T06:03:34;31.88;;;19.13;;
55455;SDS011;63021;52.836;6.376;2022-11-21T06:06:07;35.85;;;21.30;;
55455;SDS011;63021;52.836;6.376;2022-11-21T06:08:36;33.72;;;20.98;;
55455;SDS011;63021;52.836;6.376;2022-11-21T06:11:03;37.03;;;22.15;;
55455;SDS011;63021;52.836;6.376;2022-11-21T06:13:29;32.22;;;19.83;;
55455;SDS011;63021;52.836;6.376;2022-11-21T06:16:00;34.75;;;20.60;;
55455;SDS011;63021;52.836;6.376;2022-11-21T06:18:27;39.03;;;21.63;;
55455;SDS011;63021;52.836;6.376;2022-11-21T06:20:59;34.03;;;20.65;;
55455;SDS011;63021;52.836;6.376;2022-11-21T06:23:25;35.70;;;21.63;;
55455;SDS011;63021;52.836;6.376;2022-11-21T06:25:54;34.90;;;21.20;;
55455;SDS011;63021;52.836;6.376;2022-11-21T06:28:21;37.53;;;22.25;;
55455;SDS011;63021;52.836;6.376;2022-11-21T06:30:46;39.25;;;21.88;;
55455;SDS011;63021;52.836;6.376;2022-11-21T06:33:15;35.42;;;20.88;;
55455;SDS011;63021;52.836;6.376;2022-11-21T06:35:42;39.95;;;23.05;;
55455;SDS011;63021;52.836;6.376;2022-11-21T06:38:08;40.53;;;21.73;;
55455;SDS011;63021;52.836;6.376;2022-11-21T06:40:33;36.08;;;21.15;;
55455;SDS011;63021;52.836;6.376;2022-11-21T06:42:59;38.72;;;20.92;;
55455;SDS011;63021;52.836;6.376;2022-11-21T06:45:24;36.90;;;20.55;;
55455;SDS011;63021;52.836;6.376;2022-11-21T06:47:49;35.58;;;21.05;;
55455;SDS011;63021;52.836;6.376;2022-11-21T06:50:15;33.88;;;19.95;;
55455;SDS011;63021;52.836;6.376;2022-11-21T06:52:40;35.85;;;19.00;;
55455;SDS011;63021;52.836;6.376;2022-11-21T06:55:06;32.38;;;18.60;;
55455;SDS011;63021;52.836;6.376;2022-11-21T06:57:33;30.33;;;18.13;;
55455;SDS011;63021;52.836;6.376;2022-11-21T06:59:58;29.13;;;17.88;;
55455;SDS011;63021;52.836;6.376;2022-11-21T07:02:24;31.15;;;19.00;;
55455;SDS011;63021;52.836;6.376;2022-11-21T07:04:49;27.70;;;17.17;;
55455;SDS011;63021;52.836;6.376;2022-11-21T07:07:14;28.63;;;17.80;;
55455;SDS011;63021;52.836;6.376;2022-11-21T07:09:40;29.00;;;18.33;;
55455;SDS011;63021;52.836;6.376;2022-11-21T07:12:08;31.42;;;17.05;;
55455;SDS011;63021;52.836;6.376;2022-11-21T07:14:53;29.33;;;18.17;;
55455;SDS011;63021;52.836;6.376;2022-11-21T07:17:18;29.90;;;16.63;;
55455;SDS011;63021;52.836;6.376;2022-11-21T07:19:43;30.55;;;18.02;;
55455;SDS011;63021;52.836;6.376;2022-11-21T07:22:09;30.30;;;18.48;;
55455;SDS011;63021;52.836;6.376;2022-11-21T07:24:34;30.75;;;16.98;;
55455;SDS011;63021;52.836;6.376;2022-11-21T07:27:00;25.88;;;16.42;;
55455;SDS011;63021;52.836;6.376;2022-11-21T07:29:26;29.77;;;18.00;;
55455;SDS011;63021;52.836;6.376;2022-11-21T07:31:51;29.38;;;18.45;;
55455;SDS011;63021;52.836;6.376;2022-11-21T07:34:17;31.95;;;18.08;;
55455;SDS011;63021;52.836;6.376;2022-11-21T07:36:42;33.15;;;19.45;;
55455;SDS011;63021;52.836;6.376;2022-11-21T07:39:07;32.67;;;17.98;;
55455;SDS011;63021;52.836;6.376;2022-11-21T07:41:33;28.67;;;17.85;;
55455;SDS011;63021;52.836;6.376;2022-11-21T07:43:58;33.33;;;19.67;;
55455;SDS011;63021;52.836;6.376;2022-11-21T07:46:23;31.23;;;18.20;;
55455;SDS011;63021;52.836;6.376;2022-11-21T07:48:49;32.40;;;18.05;;
55455;SDS011;63021;52.836;6.376;2022-11-21T07:51:16;35.90;;;20.42;;
55455;SDS011;63021;52.836;6.376;2022-11-21T07:53:42;32.13;;;19.38;;
55455;SDS011;63021;52.836;6.376;2022-11-21T07:56:07;30.77;;;18.70;;
55455;SDS011;63021;52.836;6.376;2022-11-21T07:58:35;34.35;;;19.98;;
55455;SDS011;63021;52.836;6.376;2022-11-21T08:01:04;30.77;;;19.73;;
55455;SDS011;63021;52.836;6.376;2022-11-21T08:03:31;38.15;;;20.05;;
55455;SDS011;63021;52.836;6.376;2022-11-21T08:06:00;38.17;;;20.45;;
55455;SDS011;63021;52.836;6.376;2022-11-21T08:08:27;31.88;;;19.20;;
55455;SDS011;63021;52.836;6.376;2022-11-21T08:10:53;34.10;;;18.90;;
55455;SDS011;63021;52.836;6.376;2022-11-21T08:13:18;34.00;;;19.83;;
55455;SDS011;63021;52.836;6.376;2022-11-21T08:15:44;33.22;;;19.08;;
55455;SDS011;63021;52.836;6.376;2022-11-21T08:18:10;35.55;;;18.83;;
55455;SDS011;63021;52.836;6.376;2022-11-21T08:20:36;29.67;;;18.85;;
55455;SDS011;63021;52.836;6.376;2022-11-21T08:23:02;34.00;;;18.88;;
55455;SDS011;63021;52.836;6.376;2022-11-21T08:25:28;30.67;;;16.48;;
55455;SDS011;63021;52.836;6.376;2022-11-21T08:27:57;32.47;;;16.98;;
55455;SDS011;63021;52.836;6.376;2022-11-21T08:30:22;27.38;;;16.55;;
55455;SDS011;63021;52.836;6.376;2022-11-21T08:32:48;27.25;;;16.90;;
55455;SDS011;63021;52.836;6.376;2022-11-21T08:35:13;26.83;;;16.15;;
55455;SDS011;63021;52.836;6.376;2022-11-21T08:37:39;26.88;;;15.52;;
55455;SDS011;63021;52.836;6.376;2022-11-21T08:40:05;25.30;;;15.63;;
55455;SDS011;63021;52.836;6.376;2022-11-21T08:42:31;26.17;;;15.20;;
55455;SDS011;63021;52.836;6.376;2022-11-21T08:44:56;24.40;;;15.13;;
55455;SDS011;63021;52.836;6.376;2022-11-21T08:47:22;26.08;;;15.90;;
55455;SDS011;63021;52.836;6.376;2022-11-21T08:49:48;24.10;;;14.93;;
55455;SDS011;63021;52.836;6.376;2022-11-21T08:52:14;23.98;;;15.35;;
55455;SDS011;63021;52.836;6.376;2022-11-21T08:54:41;26.05;;;16.73;;
55455;SDS011;63021;52.836;6.376;2022-11-21T08:57:08;30.50;;;15.82;;
55455;SDS011;63021;52.836;6.376;2022-11-21T08:59:34;25.98;;;15.80;;
55455;SDS011;63021;52.836;6.376;2022-11-21T09:01:59;27.77;;;16.00;;
55455;SDS011;63021;52.836;6.376;2022-11-21T09:04:25;24.35;;;14.93;;
55455;SDS011;63021;52.836;6.376;2022-11-21T09:06:50;24.08;;;15.02;;
55455;SDS011;63021;52.836;6.376;2022-11-21T09:09:16;25.92;;;14.98;;
55455;SDS011;63021;52.836;6.376;2022-11-21T09:11:41;25.67;;;15.48;;
55455;SDS011;63021;52.836;6.376;2022-11-21T09:14:06;25.02;;;15.38;;
55455;SDS011;63021;52.836;6.376;2022-11-21T09:16:50;26.00;;;15.73;;
55455;SDS011;63021;52.836;6.376;2022-11-21T09:19:34;26.20;;;15.63;;
55455;SDS011;63021;52.836;6.376;2022-11-21T09:22:00;24.08;;;14.27;;
55455;SDS011;63021;52.836;6.376;2022-11-21T09:24:25;26.27;;;15.70;;
55455;SDS011;63021;52.836;6.376;2022-11-21T09:26:50;28.55;;;15.90;;
55455;SDS011;63021;52.836;6.376;2022-11-21T09:29:16;25.17;;;15.13;;
55455;SDS011;63021;52.836;6.376;2022-11-21T09:31:41;26.73;;;16.02;;
55455;SDS011;63021;52.836;6.376;2022-11-21T09:34:07;27.90;;;16.55;;
55455;SDS011;63021;52.836;6.376;2022-11-21T09:36:33;25.65;;;16.63;;
55455;SDS011;63021;52.836;6.376;2022-11-21T09:38:58;24.13;;;15.63;;
55455;SDS011;63021;52.836;6.376;2022-11-21T09:49:59;24.85;;;14.25;;
55455;SDS011;63021;52.836;6.376;2022-11-21T09:52:33;25.77;;;14.63;;
55455;SDS011;63021;52.836;6.376;2022-11-21T09:55:12;22.15;;;13.90;;
55455;SDS011;63021;52.836;6.376;2022-11-21T09:57:44;27.83;;;16.40;;
55455;SDS011;63021;52.836;6.376;2022-11-21T10:00:23;26.58;;;15.77;;
55455;SDS011;63021;52.836;6.376;2022-11-21T10:02:49;27.77;;;16.45;;
55455;SDS011;63021;52.836;6.376;2022-11-21T10:05:16;25.17;;;14.65;;
55455;SDS011;63021;52.836;6.376;2022-11-21T10:07:47;25.63;;;15.68;;
55455;SDS011;63021;52.836;6.376;2022-11-21T10:29:20;26.10;;;15.70;;
55455;SDS011;63021;52.836;6.376;2022-11-21T10:34:42;25.38;;;14.55;;
55455;SDS011;63021;52.836;6.376;2022-11-21T10:37:12;27.20;;;16.23;;
55455;SDS011;63021;52.836;6.376;2022-11-21T10:39:56;26.33;;;16.42;;
55455;SDS011;63021;52.836;6.376;2022-11-21T10:45:20;27.20;;;15.90;;
55455;SDS011;63021;52.836;6.376;2022-11-21T10:47:48;25.35;;;15.52;;
55455;SDS011;63021;52.836;6.376;2022-11-21T10:52:46;25.40;;;16.05;;
55455;SDS011;63021;52.836;6.376;2022-11-21T10:55:14;25.00;;;14.35;;
55455;SDS011;63021;52.836;6.376;2022-11-21T10:57:47;23.25;;;14.15;;
55455;SDS011;63021;52.836;6.376;2022-11-21T11:02:40;18.02;;;13.05;;
55455;SDS011;63021;52.836;6.376;2022-11-21T11:05:27;18.50;;;12.50;;
55455;SDS011;63021;52.836;6.376;2022-11-21T11:08:13;21.00;;;12.88;;
55455;SDS011;63021;52.836;6.376;2022-11-21T11:10:42;16.85;;;11.95;;
55455;SDS011;63021;52.836;6.376;2022-11-21T11:13:13;15.35;;;11.57;;
55455;SDS011;63021;52.836;6.376;2022-11-21T11:18:30;16.20;;;10.00;;
55455;SDS011;63021;52.836;6.376;2022-11-21T11:21:17;15.35;;;10.63;;
55455;SDS011;63021;52.836;6.376;2022-11-21T11:23:47;16.40;;;10.98;;
55455;SDS011;63021;52.836;6.376;2022-11-21T11:26:22;13.93;;;9.93;;
55455;SDS011;63021;52.836;6.376;2022-11-21T11:28:51;14.98;;;10.13;;
55455;SDS011;63021;52.836;6.376;2022-11-21T11:31:18;15.55;;;9.98;;
55455;SDS011;63021;52.836;6.376;2022-11-21T11:36:12;16.33;;;12.13;;
55455;SDS011;63021;52.836;6.376;2022-11-21T11:38:51;15.95;;;11.63;;
55455;SDS011;63021;52.836;6.376;2022-11-21T11:47:58;17.92;;;13.30;;
55455;SDS011;63021;52.836;6.376;2022-11-21T11:50:28;16.48;;;12.40;;
55455;SDS011;63021;52.836;6.376;2022-11-21T11:53:14;17.98;;;12.65;;
55455;SDS011;63021;52.836;6.376;2022-11-21T11:55:45;15.15;;;10.45;;
55455;SDS011;63021;52.836;6.376;2022-11-21T11:58:27;18.80;;;11.15;;
55455;SDS011;63021;52.836;6.376;2022-11-21T12:01:33;16.35;;;11.40;;
55455;SDS011;63021;52.836;6.376;2022-11-21T12:04:18;17.95;;;12.07;;
55455;SDS011;63021;52.836;6.376;2022-11-21T12:12:03;17.05;;;12.80;;
55455;SDS011;63021;52.836;6.376;2022-11-21T12:17:30;18.70;;;12.68;;
55455;SDS011;63021;52.836;6.376;2022-11-21T12:20:02;16.17;;;11.70;;
55455;SDS011;63021;52.836;6.376;2022-11-21T12:22:38;19.08;;;13.45;;
55455;SDS011;63021;52.836;6.376;2022-11-21T12:25:06;17.52;;;12.27;;
55455;SDS011;63021;52.836;6.376;2022-11-21T12:27:35;19.92;;;12.85;;
55455;SDS011;63021;52.836;6.376;2022-11-21T12:30:19;16.50;;;11.63;;
55455;SDS011;63021;52.836;6.376;2022-11-21T12:32:56;18.50;;;13.07;;
55455;SDS011;63021;52.836;6.376;2022-11-21T12:35:31;17.45;;;12.05;;
55455;SDS011;63021;52.836;6.376;2022-11-21T12:43:54;20.90;;;12.68;;
55455;SDS011;63021;52.836;6.376;2022-11-21T12:52:39;22.35;;;14.18;;
55455;SDS011;63021;52.836;6.376;2022-11-21T13:06:25;28.90;;;16.23;;
55455;SDS011;63021;52.836;6.376;2022-11-21T13:08:53;29.90;;;18.10;;
55455;SDS011;63021;52.836;6.376;2022-11-21T13:11:29;24.05;;;17.02;;
55455;SDS011;63021;52.836;6.376;2022-11-21T13:19:44;28.27;;;18.67;;
55455;SDS011;63021;52.836;6.376;2022-11-21T13:32:44;32.28;;;18.50;;
55455;SDS011;63021;52.836;6.376;2022-11-21T13:45:40;31.15;;;17.80;;
55455;SDS011;63021;52.836;6.376;2022-11-21T13:53:44;32.78;;;16.70;;
55455;SDS011;63021;52.836;6.376;2022-11-21T14:07:34;33.65;;;18.58;;
55455;SDS011;63021;52.836;6.376;2022-11-21T14:10:03;32.25;;;18.40;;
55455;SDS011;63021;52.836;6.376;2022-11-21T14:12:41;40.70;;;19.45;;
55455;SDS011;63021;52.836;6.376;2022-11-21T14:15:15;38.80;;;19.73;;
55455;SDS011;63021;52.836;6.376;2022-11-21T14:17:57;31.55;;;17.38;;
55455;SDS011;63021;52.836;6.376;2022-11-21T14:20:35;35.38;;;18.13;;
55455;SDS011;63021;52.836;6.376;2022-11-21T14:23:15;43.05;;;19.60;;
55455;SDS011;63021;52.836;6.376;2022-11-21T14:25:46;36.15;;;18.70;;
55455;SDS011;63021;52.836;6.376;2022-11-21T14:28:24;37.13;;;18.23;;
55455;SDS011;63021;52.836;6.376;2022-11-21T14:30:58;38.20;;;18.95;;
55455;SDS011;63021;52.836;6.376;2022-11-21T14:36:26;40.55;;;18.83;;
55455;SDS011;63021;52.836;6.376;2022-11-21T14:38:59;39.80;;;18.52;;
55455;SDS011;63021;52.836;6.376;2022-11-21T14:41:30;40.60;;;20.17;;
55455;SDS011;63021;52.836;6.376;2022-11-21T14:46:22;39.20;;;18.63;;
55455;SDS011;63021;52.836;6.376;2022-11-21T14:48:49;35.08;;;17.10;;
55455;SDS011;63021;52.836;6.376;2022-11-21T14:51:16;34.13;;;16.92;;
55455;SDS011;63021;52.836;6.376;2022-11-21T14:53:46;41.80;;;18.33;;
55455;SDS011;63021;52.836;6.376;2022-11-21T14:58:53;40.38;;;18.98;;
55455;SDS011;63021;52.836;6.376;2022-11-21T15:01:26;35.70;;;18.85;;
55455;SDS011;63021;52.836;6.376;2022-11-21T15:03:54;37.25;;;18.48;;
55455;SDS011;63021;52.836;6.376;2022-11-21T15:06:19;38.30;;;18.30;;
55455;SDS011;63021;52.836;6.376;2022-11-21T15:08:45;46.75;;;19.60;;
55455;SDS011;63021;52.836;6.376;2022-11-21T15:11:10;39.97;;;17.85;;
55455;SDS011;63021;52.836;6.376;2022-11-21T15:13:38;33.35;;;17.40;;
55455;SDS011;63021;52.836;6.376;2022-11-21T15:16:05;38.97;;;18.13;;
55455;SDS011;63021;52.836;6.376;2022-11-21T15:18:31;44.03;;;20.48;;
55455;SDS011;63021;52.836;6.376;2022-11-21T15:20:57;44.92;;;20.40;;
55455;SDS011;63021;52.836;6.376;2022-11-21T15:23:27;42.88;;;21.08;;
55455;SDS011;63021;52.836;6.376;2022-11-21T15:25:55;52.90;;;21.98;;
55455;SDS011;63021;52.836;6.376;2022-11-21T15:28:21;55.05;;;20.13;;
55455;SDS011;63021;52.836;6.376;2022-11-21T15:30:47;49.20;;;20.95;;
55455;SDS011;63021;52.836;6.376;2022-11-21T15:33:55;52.00;;;21.02;;
55455;SDS011;63021;52.836;6.376;2022-11-21T15:36:25;48.70;;;19.98;;
55455;SDS011;63021;52.836;6.376;2022-11-21T15:41:24;56.00;;;22.50;;
55455;SDS011;63021;52.836;6.376;2022-11-21T15:43:54;51.42;;;22.10;;
55455;SDS011;63021;52.836;6.376;2022-11-21T15:46:26;52.45;;;21.55;;
55455;SDS011;63021;52.836;6.376;2022-11-21T15:49:06;54.20;;;21.58;;
55455;SDS011;63021;52.836;6.376;2022-11-21T15:51:43;53.35;;;22.38;;
55455;SDS011;63021;52.836;6.376;2022-11-21T15:54:11;59.38;;;23.33;;
55455;SDS011;63021;52.836;6.376;2022-11-21T15:56:39;53.03;;;22.05;;
55455;SDS011;63021;52.836;6.376;2022-11-21T15:59:05;61.53;;;22.90;;
55455;SDS011;63021;52.836;6.376;2022-11-21T16:01:32;59.17;;;24.85;;
55455;SDS011;63021;52.836;6.376;2022-11-21T16:03:59;57.25;;;22.00;;
55455;SDS011;63021;52.836;6.376;2022-11-21T16:06:26;50.03;;;21.75;;
55455;SDS011;63021;52.836;6.376;2022-11-21T16:08:52;56.60;;;23.05;;
55455;SDS011;63021;52.836;6.376;2022-11-21T16:13:48;62.47;;;23.45;;
55455;SDS011;63021;52.836;6.376;2022-11-21T16:16:14;62.83;;;25.42;;
55455;SDS011;63021;52.836;6.376;2022-11-21T16:18:40;61.38;;;26.63;;
55455;SDS011;63021;52.836;6.376;2022-11-21T16:21:06;74.10;;;25.45;;
55455;SDS011;63021;52.836;6.376;2022-11-21T16:23:33;63.10;;;23.80;;
55455;SDS011;63021;52.836;6.376;2022-11-21T16:25:58;67.38;;;23.98;;
55455;SDS011;63021;52.836;6.376;2022-11-21T16:28:24;62.63;;;24.73;;
55455;SDS011;63021;52.836;6.376;2022-11-21T16:30:49;62.85;;;27.17;;
55455;SDS011;63021;52.836;6.376;2022-11-21T16:33:15;63.92;;;23.98;;
55455;SDS011;63021;52.836;6.376;2022-11-21T16:35:40;62.20;;;26.02;;
55455;SDS011;63021;52.836;6.376;2022-11-21T16:38:09;63.65;;;26.60;;
55455;SDS011;63021;52.836;6.376;2022-11-21T16:40:35;70.72;;;26.52;;
55455;SDS011;63021;52.836;6.376;2022-11-21T16:43:07;68.72;;;26.85;;
55455;SDS011;63021;52.836;6.376;2022-11-21T16:45:35;64.57;;;26.17;;
55455;SDS011;63021;52.836;6.376;2022-11-21T16:48:01;69.32;;;28.95;;
55455;SDS011;63021;52.836;6.376;2022-11-21T16:50:27;66.72;;;25.08;;
55455;SDS011;63021;52.836;6.376;2022-11-21T16:52:52;69.40;;;27.23;;
55455;SDS011;63021;52.836;6.376;2022-11-21T16:55:17;71.85;;;26.98;;
55455;SDS011;63021;52.836;6.376;2022-11-21T16:57:43;71.25;;;27.92;;
55455;SDS011;63021;52.836;6.376;2022-11-21T17:00:09;58.50;;;24.63;;